Time;durP1;ratioP1;P1;durP2;ratioP2;P2;SDS_P1;SDS_P2;PMS_P1;PMS_P2;Temp;Humidity;BMP_temperature;BMP_pressure;BME280_temperature;BME280_humidity;BME280_pressure;Samples;Min_cycle;Max_cycle;Signal;HPM_P1;HPM_P2
2024/02/05 00:00:36;;;;;;;2.00;1.43;;;7.10;7.40;;;;;;4951922;28;20482;-74
2024/02/05 00:03:02;;;;;;;1.60;0.80;;;7.00;7.60;;;;;;4953199;28;20803;-73
2024/02/05 00:05:28;;;;;;;2.70;1.37;;;6.90;7.90;;;;;;4951689;28;20424;-72
2024/02/05 00:07:54;;;;;;;2.07;0.90;;;6.90;8.40;;;;;;4951183;29;20270;-73
2024/02/05 00:10:20;;;;;;;2.70;1.50;;;6.80;8.40;;;;;;4951279;28;20509;-73
2024/02/05 00:12:45;;;;;;;2.60;1.53;;;6.80;8.70;;;;;;4952401;28;20218;-72
2024/02/05 00:15:11;;;;;;;2.23;1.30;;;6.70;9.30;;;;;;4951522;28;20186;-74
2024/02/05 00:17:36;;;;;;;2.07;1.23;;;6.70;9.50;;;;;;4952363;28;20187;-73
2024/02/05 00:20:03;;;;;;;2.47;1.70;;;6.70;10.20;;;;;;4951149;28;20272;-72
2024/02/05 00:22:29;;;;;;;2.50;1.10;;;6.60;10.20;;;;;;4952659;28;20299;-72
2024/02/05 00:24:54;;;;;;;2.33;0.83;;;6.60;10.70;;;;;;4955228;28;20522;-73
2024/02/05 00:27:20;;;;;;;3.57;1.27;;;6.50;11.00;;;;;;4956207;28;20181;-72
2024/02/05 00:29:46;;;;;;;2.30;1.00;;;6.40;11.60;;;;;;4955010;28;20178;-72
2024/02/05 00:32:15;;;;;;;2.07;1.23;;;6.40;11.80;;;;;;4954938;28;20542;-71
2024/02/05 00:34:40;;;;;;;2.43;1.40;;;6.40;12.50;;;;;;4956312;28;20594;-73
2024/02/05 00:37:06;;;;;;;2.97;1.70;;;6.30;12.40;;;;;;4956326;28;20432;-73
2024/02/05 00:39:31;;;;;;;3.50;1.70;;;6.20;12.40;;;;;;4956343;28;20188;-72
2024/02/05 00:42:00;;;;;;;1.90;1.20;;;6.20;13.60;;;;;;4955881;28;20218;-72
2024/02/05 00:44:25;;;;;;;3.30;1.73;;;6.20;14.10;;;;;;4956036;28;20186;-71
2024/02/05 00:46:54;;;;;;;2.50;1.60;;;6.10;14.20;;;;;;4955604;28;20453;-74
2024/02/05 00:49:19;;;;;;;2.00;1.20;;;6.10;14.30;;;;;;4955560;28;20414;-74
2024/02/05 00:51:45;;;;;;;4.80;1.83;;;6.10;14.80;;;;;;4953269;28;20422;-74
2024/02/05 00:54:14;;;;;;;2.67;1.90;;;6.00;15.30;;;;;;4954575;28;20681;-73
2024/02/05 00:56:40;;;;;;;2.57;1.57;;;6.00;15.70;;;;;;4954369;28;20675;-72
2024/02/05 00:59:09;;;;;;;2.77;1.60;;;5.90;16.50;;;;;;4955630;28;20456;-72
2024/02/05 01:01:34;;;;;;;3.80;2.07;;;5.90;16.50;;;;;;4953612;28;20464;-74
2024/02/05 01:04:09;;;;;;;2.57;1.40;;;5.90;16.60;;;;;;4954577;28;20505;-74
2024/02/05 01:06:45;;;;;;;2.70;1.60;;;5.90;17.00;;;;;;4954499;28;20185;-73
2024/02/05 01:09:12;;;;;;;2.17;1.23;;;5.80;17.20;;;;;;4955632;28;20406;-72
2024/02/05 01:11:41;;;;;;;3.33;1.37;;;5.70;17.50;;;;;;4954316;29;20436;-73
2024/02/05 01:14:06;;;;;;;3.50;1.73;;;5.70;18.60;;;;;;4962345;23;20507;-68
2024/02/05 01:16:32;;;;;;;4.50;1.80;;;5.70;18.80;;;;;;4936916;29;20415;-70
2024/02/05 01:18:57;;;;;;;2.03;1.17;;;5.70;19.90;;;;;;4937007;29;20178;-68
2024/02/05 01:21:23;;;;;;;2.43;1.63;;;5.60;20.00;;;;;;4936817;29;20634;-69
2024/02/05 01:23:49;;;;;;;2.73;1.67;;;5.60;20.10;;;;;;4936797;29;20195;-69
2024/02/05 01:26:14;;;;;;;2.93;1.97;;;5.60;20.50;;;;;;4936855;29;20203;-69
2024/02/05 01:28:40;;;;;;;2.90;1.60;;;5.50;20.70;;;;;;4935734;29;20665;-69
2024/02/05 01:31:06;;;;;;;2.70;1.80;;;5.50;20.70;;;;;;4936841;29;20190;-69
2024/02/05 01:33:32;;;;;;;4.30;2.17;;;5.50;21.30;;;;;;4936862;29;20653;-69
2024/02/05 01:35:58;;;;;;;2.47;1.40;;;5.50;21.60;;;;;;4935350;29;20446;-69
2024/02/05 01:38:23;;;;;;;2.87;2.10;;;5.40;21.90;;;;;;4935693;29;20656;-68
2024/02/05 01:40:49;;;;;;;4.10;1.97;;;5.40;21.80;;;;;;4935335;29;20285;-68
2024/02/05 01:43:16;;;;;;;2.13;1.33;;;5.30;22.50;;;;;;4936549;29;20187;-67
2024/02/05 01:45:42;;;;;;;2.97;1.93;;;5.30;23.10;;;;;;4936749;29;20423;-68
2024/02/05 01:48:08;;;;;;;2.60;1.60;;;5.30;23.20;;;;;;4936489;29;20972;-68
2024/02/05 01:50:34;;;;;;;3.27;1.70;;;5.30;23.40;;;;;;4936408;29;20540;-68
2024/02/05 01:53:00;;;;;;;4.07;2.43;;;5.30;23.90;;;;;;4936526;29;20519;-69
2024/02/05 01:55:28;;;;;;;3.30;1.53;;;5.30;23.70;;;;;;4936603;29;20509;-69
2024/02/05 01:57:54;;;;;;;4.93;1.90;;;5.30;23.90;;;;;;4936059;29;20473;-70
2024/02/05 02:00:20;;;;;;;3.00;1.60;;;5.20;23.80;;;;;;4936253;29;20422;-70
2024/02/05 02:02:45;;;;;;;3.17;1.50;;;5.20;24.40;;;;;;4936092;29;20537;-70
2024/02/05 02:05:12;;;;;;;2.60;1.30;;;5.20;24.70;;;;;;4934901;29;20481;-70
2024/02/05 02:07:38;;;;;;;4.50;2.03;;;5.30;25.30;;;;;;4936184;29;20196;-70
2024/02/05 02:10:04;;;;;;;3.93;1.47;;;5.40;24.50;;;;;;4934731;29;20423;-70
2024/02/05 02:12:30;;;;;;;4.70;2.10;;;5.50;23.60;;;;;;4934828;29;20976;-69
2024/02/05 02:14:55;;;;;;;3.30;1.50;;;5.60;22.90;;;;;;4936417;29;20430;-70
2024/02/05 02:17:23;;;;;;;3.20;1.40;;;5.70;21.60;;;;;;4936006;29;20541;-70
2024/02/05 02:19:51;;;;;;;2.83;1.70;;;5.80;20.70;;;;;;4935853;29;20186;-70
2024/02/05 02:22:36;;;;;;;2.40;1.20;;;5.90;20.70;;;;;;4950724;29;20466;-71
2024/02/05 02:25:02;;;;;;;2.67;1.67;;;5.90;19.80;;;;;;4935825;29;20482;-69
2024/02/05 02:27:28;;;;;;;2.57;1.47;;;6.00;19.30;;;;;;4935658;29;20973;-69
2024/02/05 02:29:55;;;;;;;3.00;2.00;;;6.00;18.60;;;;;;4934396;29;20418;-69
2024/02/05 02:32:23;;;;;;;2.40;1.50;;;6.00;18.30;;;;;;4935519;29;20206;-69
2024/02/05 02:34:52;;;;;;;3.50;1.93;;;6.10;17.70;;;;;;4935807;29;20426;-69
2024/02/05 02:37:21;;;;;;;3.30;1.60;;;6.20;16.90;;;;;;4936163;29;20801;-69
2024/02/05 02:40:01;;;;;;;3.40;1.80;;;6.20;16.70;;;;;;4935299;29;20918;-69
2024/02/05 02:42:27;;;;;;;2.47;1.50;;;6.20;16.70;;;;;;4935799;29;20466;-70
2024/02/05 02:44:54;;;;;;;3.53;1.40;;;6.20;16.70;;;;;;4935900;29;20419;-69
2024/02/05 02:47:20;;;;;;;2.23;1.10;;;6.20;16.70;;;;;;4935044;29;20425;-69
2024/02/05 02:49:46;;;;;;;2.23;1.33;;;6.20;16.70;;;;;;4935337;29;20536;-69
2024/02/05 02:52:11;;;;;;;2.70;1.63;;;6.20;16.70;;;;;;4935201;29;20915;-69
2024/02/05 02:54:37;;;;;;;2.30;1.13;;;6.30;16.80;;;;;;4935323;29;20182;-69
2024/02/05 02:57:02;;;;;;;2.00;1.23;;;6.40;16.50;;;;;;4935107;29;20220;-69
2024/02/05 02:59:28;;;;;;;2.93;1.50;;;6.40;15.10;;;;;;4935352;29;20206;-69
2024/02/05 03:01:53;;;;;;;3.30;1.87;;;6.40;15.70;;;;;;4935057;29;20206;-69
2024/02/05 03:04:19;;;;;;;2.53;1.50;;;6.40;15.30;;;;;;4935637;29;20198;-69
2024/02/05 03:06:45;;;;;;;2.33;1.53;;;6.40;15.60;;;;;;4934811;29;20318;-69
2024/02/05 03:09:10;;;;;;;3.07;1.70;;;6.40;15.30;;;;;;4935208;29;20517;-69
2024/02/05 03:11:36;;;;;;;3.03;1.37;;;6.40;15.20;;;;;;4934992;29;20230;-69
2024/02/05 03:14:01;;;;;;;2.10;1.20;;;6.40;15.60;;;;;;4934898;29;20259;-69
2024/02/05 03:16:27;;;;;;;3.40;1.60;;;6.50;14.80;;;;;;4934719;29;20196;-69
2024/02/05 03:18:52;;;;;;;6.50;1.53;;;6.50;14.80;;;;;;4934888;29;20584;-69
2024/02/05 03:21:18;;;;;;;2.47;1.20;;;6.50;14.20;;;;;;4934680;29;20575;-69
2024/02/05 03:23:44;;;;;;;2.27;1.17;;;6.40;14.90;;;;;;4934787;29;20200;-69
2024/02/05 03:26:09;;;;;;;3.63;2.13;;;6.50;14.20;;;;;;4934864;29;20185;-69
2024/02/05 03:28:35;;;;;;;3.47;1.90;;;6.40;14.80;;;;;;4934732;29;20198;-69
2024/02/05 03:31:04;;;;;;;4.03;1.73;;;6.40;14.50;;;;;;4934990;29;20182;-70
2024/02/05 03:33:29;;;;;;;4.33;1.20;;;6.50;14.90;;;;;;4934649;29;20922;-69
2024/02/05 03:35:55;;;;;;;3.23;1.60;;;6.50;14.30;;;;;;4934555;29;20446;-69
2024/02/05 03:38:20;;;;;;;2.83;1.80;;;6.50;14.90;;;;;;4934310;29;20171;-69
2024/02/05 03:40:46;;;;;;;3.87;1.30;;;6.60;14.50;;;;;;4934357;29;20222;-69
2024/02/05 03:43:11;;;;;;;4.00;1.57;;;6.60;13.80;;;;;;4934492;29;20273;-69
2024/02/05 03:45:37;;;;;;;2.90;1.50;;;6.60;13.00;;;;;;4949505;29;20180;-69
2024/02/05 03:48:03;;;;;;;4.27;1.80;;;6.60;14.10;;;;;;4934337;29;20172;-69
2024/02/05 03:50:30;;;;;;;4.33;1.67;;;6.60;13.90;;;;;;4933234;29;20178;-69
2024/02/05 03:52:56;;;;;;;2.37;1.57;;;6.60;14.40;;;;;;4934659;29;20206;-68
2024/02/05 03:55:22;;;;;;;2.33;1.40;;;6.50;15.20;;;;;;4934449;29;20456;-68
2024/02/05 03:57:59;;;;;;;4.37;2.37;;;6.50;15.60;;;;;;4934023;29;20514;-68
2024/02/05 04:00:25;;;;;;;2.53;1.37;;;6.50;16.60;;;;;;4933973;29;20318;-68
2024/02/05 04:02:50;;;;;;;3.40;1.77;;;6.60;15.60;;;;;;4933997;29;20888;-69
2024/02/05 04:05:16;;;;;;;3.30;1.70;;;6.60;16.20;;;;;;4934288;29;20185;-68
2024/02/05 04:07:41;;;;;;;3.90;1.73;;;6.60;15.60;;;;;;4933858;29;20181;-69
2024/02/05 04:10:07;;;;;;;2.57;1.20;;;6.60;15.70;;;;;;4934211;29;20544;-69
2024/02/05 04:12:33;;;;;;;2.20;1.17;;;6.60;15.70;;;;;;4934129;29;20281;-69
2024/02/05 04:14:58;;;;;;;2.50;1.43;;;6.70;15.40;;;;;;4934054;29;20424;-69
2024/02/05 04:17:24;;;;;;;3.60;1.20;;;6.70;14.90;;;;;;4933907;29;20181;-69
2024/02/05 04:19:51;;;;;;;4.00;2.10;;;6.70;15.00;;;;;;4934072;29;20191;-69
2024/02/05 04:22:16;;;;;;;5.27;1.60;;;6.70;15.20;;;;;;4933870;29;20218;-70
2024/02/05 04:24:42;;;;;;;2.73;1.37;;;6.80;14.50;;;;;;4934287;29;20499;-69
2024/02/05 04:27:08;;;;;;;4.13;1.73;;;6.80;14.10;;;;;;4934055;29;20191;-69
2024/02/05 04:29:34;;;;;;;3.37;2.10;;;6.80;14.00;;;;;;4934375;29;20494;-69
2024/02/05 04:32:01;;;;;;;2.20;1.10;;;6.80;13.60;;;;;;4934174;29;20420;-69
2024/02/05 04:34:27;;;;;;;2.60;1.13;;;6.80;13.80;;;;;;4934102;29;20432;-69
2024/02/05 04:36:53;;;;;;;8.00;1.70;;;6.80;13.70;;;;;;4933808;29;20871;-69
2024/02/05 04:39:22;;;;;;;3.13;1.47;;;6.80;13.00;;;;;;4934046;29;20415;-69
2024/02/05 04:41:48;;;;;;;5.37;1.63;;;6.70;14.00;;;;;;4933931;29;20200;-69
2024/02/05 04:44:14;;;;;;;3.67;1.30;;;6.70;14.20;;;;;;4933777;29;20430;-69
2024/02/05 04:46:40;;;;;;;3.40;1.83;;;6.70;14.10;;;;;;4933569;29;20415;-69
2024/02/05 04:49:06;;;;;;;1.93;1.03;;;6.70;13.60;;;;;;4934020;29;20507;-69
2024/02/05 04:51:32;;;;;;;4.40;1.80;;;6.70;13.80;;;;;;4933673;29;20420;-69
2024/02/05 04:53:57;;;;;;;3.67;2.10;;;6.60;14.30;;;;;;4933647;29;20203;-69
2024/02/05 04:56:23;;;;;;;3.00;1.67;;;6.60;14.40;;;;;;4934181;29;20186;-69
2024/02/05 04:58:49;;;;;;;2.97;1.73;;;6.70;14.80;;;;;;4933843;29;20828;-69
2024/02/05 05:01:14;;;;;;;3.13;1.67;;;6.70;14.20;;;;;;4933689;29;20199;-68
2024/02/05 05:03:40;;;;;;;3.00;1.33;;;6.60;14.70;;;;;;4933621;29;20300;-69
2024/02/05 05:06:06;;;;;;;4.23;1.97;;;6.60;14.50;;;;;;4933438;29;20540;-69
2024/02/05 05:08:32;;;;;;;3.83;1.50;;;6.60;14.70;;;;;;4933821;29;20645;-69
2024/02/05 05:10:58;;;;;;;4.00;1.77;;;6.60;14.90;;;;;;4935537;29;20278;-69
2024/02/05 05:13:23;;;;;;;3.40;1.83;;;6.60;15.20;;;;;;4935136;29;20541;-69
2024/02/05 05:15:49;;;;;;;2.60;1.50;;;6.60;15.00;;;;;;4935812;29;20217;-69
2024/02/05 05:18:15;;;;;;;2.87;1.50;;;6.50;15.20;;;;;;4936993;29;20424;-69
2024/02/05 05:20:41;;;;;;;2.70;1.60;;;6.50;15.50;;;;;;4951816;29;20257;-69
2024/02/05 05:23:07;;;;;;;3.10;1.83;;;6.50;15.80;;;;;;4937161;29;20580;-69
2024/02/05 05:25:33;;;;;;;3.50;1.97;;;6.50;15.30;;;;;;4936138;29;20423;-69
2024/02/05 05:27:58;;;;;;;2.60;1.80;;;6.50;15.90;;;;;;4935391;29;20601;-69
2024/02/05 05:30:24;;;;;;;3.77;2.13;;;6.50;15.40;;;;;;4936945;29;20175;-69
2024/02/05 05:32:49;;;;;;;2.87;1.53;;;6.50;15.60;;;;;;4937069;29;20202;-70
2024/02/05 05:35:15;;;;;;;4.30;1.53;;;6.50;15.50;;;;;;4935486;29;20662;-70
2024/02/05 05:37:41;;;;;;;2.80;1.83;;;6.40;15.80;;;;;;4936551;29;20187;-70
2024/02/05 05:40:08;;;;;;;2.90;1.63;;;6.40;15.70;;;;;;4936624;29;20179;-69
2024/02/05 05:42:33;;;;;;;2.87;1.20;;;6.40;16.20;;;;;;4936821;29;20462;-69
2024/02/05 05:45:00;;;;;;;3.20;1.50;;;6.40;16.10;;;;;;4935772;29;20426;-69
2024/02/05 05:47:25;;;;;;;2.90;1.80;;;6.40;15.70;;;;;;4936497;29;20517;-69
2024/02/05 05:49:51;;;;;;;4.07;2.20;;;6.50;16.30;;;;;;4936505;29;20483;-69
2024/02/05 05:52:16;;;;;;;2.17;1.20;;;6.40;15.70;;;;;;4950969;28;20195;-69
2024/02/05 05:54:42;;;;;;;6.73;1.90;;;6.40;16.30;;;;;;4936279;29;20187;-69
2024/02/05 05:57:07;;;;;;;2.63;1.33;;;6.40;16.80;;;;;;4936378;29;20187;-69
2024/02/05 05:59:37;;;;;;;3.40;1.63;;;6.30;16.70;;;;;;4936856;29;20179;-69
2024/02/05 06:02:03;;;;;;;2.53;1.60;;;6.30;17.10;;;;;;4936557;29;20650;-70
2024/02/05 06:04:29;;;;;;;18.93;2.70;;;6.30;16.80;;;;;;4936145;29;20478;-69
2024/02/05 06:06:54;;;;;;;3.57;1.90;;;6.30;16.80;;;;;;4936147;29;20218;-70
2024/02/05 06:09:21;;;;;;;3.47;1.57;;;6.30;17.70;;;;;;4936107;29;20180;-70
2024/02/05 06:11:46;;;;;;;2.47;1.40;;;6.40;16.80;;;;;;4936311;29;20182;-70
2024/02/05 06:14:12;;;;;;;3.00;1.40;;;6.40;16.00;;;;;;4936070;29;20611;-72
2024/02/05 06:16:38;;;;;;;4.20;2.40;;;6.40;16.80;;;;;;4936044;29;20189;-70
2024/02/05 06:19:03;;;;;;;2.90;1.80;;;6.40;16.80;;;;;;4935946;29;20213;-71
2024/02/05 06:21:29;;;;;;;2.33;1.27;;;6.40;16.80;;;;;;4934757;29;20218;-70
2024/02/05 06:23:54;;;;;;;3.30;2.00;;;6.30;16.80;;;;;;4935808;29;20195;-69
2024/02/05 06:26:20;;;;;;;2.57;1.53;;;6.40;16.80;;;;;;4935767;29;20307;-69
2024/02/05 06:28:45;;;;;;;3.20;1.60;;;6.40;16.80;;;;;;4950524;29;20550;-69
2024/02/05 06:31:13;;;;;;;2.53;1.70;;;6.40;16.80;;;;;;4935959;29;20604;-69
2024/02/05 06:33:38;;;;;;;3.10;1.70;;;6.40;16.10;;;;;;4935564;29;20582;-69
2024/02/05 06:36:04;;;;;;;2.50;1.60;;;6.40;16.00;;;;;;4935853;29;20426;-69
2024/02/05 06:38:30;;;;;;;3.23;2.10;;;6.40;16.10;;;;;;4935530;29;20828;-69
2024/02/05 06:40:55;;;;;;;2.33;1.17;;;6.50;16.30;;;;;;4935604;29;20750;-69
2024/02/05 06:43:21;;;;;;;2.57;1.50;;;6.40;16.40;;;;;;4935700;29;20207;-68
2024/02/05 06:45:46;;;;;;;3.80;1.63;;;6.40;16.00;;;;;;4935577;29;20184;-69
2024/02/05 06:48:12;;;;;;;2.17;1.17;;;6.40;15.30;;;;;;4935412;29;20191;-68
2024/02/05 06:50:38;;;;;;;3.40;1.57;;;6.50;14.90;;;;;;4935733;29;20176;-67
2024/02/05 06:53:03;;;;;;;2.50;1.20;;;6.50;14.80;;;;;;4936057;29;20206;-67
2024/02/05 06:55:31;;;;;;;1.93;1.07;;;6.50;14.60;;;;;;4935762;29;20322;-68
2024/02/05 06:57:57;;;;;;;2.27;1.50;;;6.50;14.60;;;;;;4935628;29;20342;-69
2024/02/05 07:00:22;;;;;;;4.40;1.60;;;6.50;14.40;;;;;;4935598;29;20471;-69
2024/02/05 07:02:50;;;;;;;2.30;1.10;;;6.50;14.30;;;;;;4935224;29;20250;-68
2024/02/05 07:05:16;;;;;;;2.43;1.20;;;6.50;14.30;;;;;;4935894;29;20270;-69
2024/02/05 07:07:41;;;;;;;7.23;1.70;;;6.50;14.40;;;;;;4929262;29;20440;-69
2024/02/05 07:10:07;;;;;;;3.07;1.27;;;6.50;13.60;;;;;;4916510;29;20890;-68
2024/02/05 07:15:06;;;;;;;2.53;1.13;;;6.50;13.80;;;;;;5053210;28;20612;-68
2024/02/05 07:17:36;;;;;;;2.30;0.80;;;6.50;13.40;;;;;;5048327;28;20406;-70
2024/02/05 07:20:03;;;;;;;1.90;1.23;;;6.60;13.40;;;;;;5047320;28;20414;-67
2024/02/05 07:22:29;;;;;;;3.70;1.20;;;6.50;13.10;;;;;;5048253;28;20405;-70
2024/02/05 07:24:55;;;;;;;2.40;1.30;;;6.60;13.40;;;;;;5046873;28;20414;-70
2024/02/05 07:27:25;;;;;;;2.00;1.33;;;6.70;12.70;;;;;;5047805;28;20501;-71
2024/02/05 07:29:51;;;;;;;2.27;1.03;;;6.60;12.60;;;;;;5048021;28;20900;-68
2024/02/05 07:32:17;;;;;;;1.83;0.80;;;6.70;12.10;;;;;;5048126;28;20841;-69
2024/02/05 07:34:42;;;;;;;2.00;1.00;;;6.60;12.30;;;;;;5046255;28;20502;-69
2024/02/05 07:37:08;;;;;;;3.13;1.70;;;6.60;11.70;;;;;;5046560;28;20421;-70
2024/02/05 07:39:34;;;;;;;2.40;1.30;;;6.70;11.90;;;;;;5047860;28;20646;-69
2024/02/05 07:41:59;;;;;;;3.80;1.00;;;6.70;11.20;;;;;;5046653;28;20468;-69
2024/02/05 07:44:26;;;;;;;1.90;0.90;;;6.80;10.50;;;;;;5047944;28;20206;-72
2024/02/05 07:46:52;;;;;;;1.73;0.87;;;6.90;10.10;;;;;;5047575;28;20183;-70
2024/02/05 07:49:18;;;;;;;2.07;1.30;;;6.80;9.10;;;;;;5047786;28;20416;-72
2024/02/05 07:51:45;;;;;;;2.90;1.33;;;6.90;9.30;;;;;;5048090;28;20548;-70
2024/02/05 07:54:11;;;;;;;3.10;1.30;;;6.90;9.70;;;;;;5048014;28;20200;-69
2024/02/05 07:56:37;;;;;;;2.57;1.17;;;6.90;8.90;;;;;;5047779;28;20866;-71
2024/02/05 07:59:03;;;;;;;2.30;1.40;;;6.90;8.50;;;;;;5047687;28;20417;-70
2024/02/05 08:01:29;;;;;;;2.47;1.10;;;7.00;8.90;;;;;;5047840;28;20613;-71
2024/02/05 08:03:55;;;;;;;2.40;1.47;;;6.90;8.70;;;;;;5047844;28;20454;-69
2024/02/05 08:06:28;;;;;;;2.80;1.50;;;7.00;8.50;;;;;;5048069;28;20774;-70
2024/02/05 08:08:54;;;;;;;3.73;1.27;;;7.00;8.50;;;;;;5047856;28;20194;-71
2024/02/05 08:11:20;;;;;;;2.40;0.90;;;7.00;8.50;;;;;;5048977;28;20982;-71
2024/02/05 08:13:46;;;;;;;2.77;1.30;;;7.10;8.60;;;;;;5047360;28;20560;-71
2024/02/05 08:16:12;;;;;;;2.27;1.03;;;7.20;8.60;;;;;;5046264;28;20239;-69
2024/02/05 08:18:37;;;;;;;4.17;1.47;;;7.30;6.60;;;;;;5052039;28;20423;-71
2024/02/05 08:21:04;;;;;;;2.63;1.23;;;7.30;6.00;;;;;;5054068;28;20192;-71
2024/02/05 08:23:34;;;;;;;2.17;1.00;;;7.30;6.60;;;;;;5050305;28;20202;-69
2024/02/05 08:26:00;;;;;;;2.50;1.30;;;7.30;6.60;;;;;;5034243;28;20428;-71
2024/02/05 08:28:25;;;;;;;4.07;1.33;;;7.30;6.40;;;;;;5034228;28;20418;-70
2024/02/05 08:30:51;;;;;;;3.00;1.17;;;7.40;6.00;;;;;;5033370;28;20263;-70
2024/02/05 08:33:16;;;;;;;2.73;1.20;;;7.60;5.30;;;;;;5031451;28;20262;-71
2024/02/05 08:35:42;;;;;;;4.60;1.20;;;7.60;4.40;;;;;;5032916;28;20192;-71
2024/02/05 08:38:08;;;;;;;2.00;0.97;;;7.70;3.70;;;;;;5032710;28;20285;-72
2024/02/05 08:40:34;;;;;;;2.10;1.10;;;7.70;4.50;;;;;;5032905;28;20174;-70
2024/02/05 08:43:02;;;;;;;3.37;1.27;;;7.70;3.40;;;;;;5035556;28;21011;-70
2024/02/05 08:45:29;;;;;;;2.73;1.07;;;7.80;3.60;;;;;;5032854;28;20269;-69
2024/02/05 08:47:55;;;;;;;4.00;1.83;;;7.70;3.10;;;;;;5031170;28;20963;-71
2024/02/05 08:50:28;;;;;;;3.53;1.50;;;7.50;3.60;;;;;;5032435;28;20422;-70
2024/02/05 08:52:56;;;;;;;2.07;0.97;;;7.60;4.50;;;;;;5031111;28;20291;-70
2024/02/05 08:55:22;;;;;;;1.93;1.03;;;7.70;4.50;;;;;;5031246;28;20431;-69
2024/02/05 08:57:50;;;;;;;3.00;1.10;;;7.60;3.10;;;;;;5023079;28;20419;-76
2024/02/05 09:00:17;;;;;;;2.27;1.00;;;7.70;3.50;;;;;;5027459;28;20229;-70
2024/02/05 09:02:48;;;;;;;2.00;1.20;;;7.90;2.10;;;;;;5026469;28;20418;-69
2024/02/05 09:05:16;;;;;;;2.10;1.17;;;8.00;1.70;;;;;;5026746;28;20898;-69
2024/02/05 09:07:42;;;;;;;2.20;1.30;;;8.10;1.30;;;;;;5027590;28;20461;-69
2024/02/05 09:10:08;;;;;;;2.50;1.30;;;8.20;1.30;;;;;;5028257;28;20528;-69
2024/02/05 09:12:34;;;;;;;7.17;1.30;;;8.30;1.00;;;;;;5027837;28;20413;-70
2024/02/05 09:15:01;;;;;;;2.23;1.00;;;8.30;1.00;;;;;;5031982;28;20468;-69
2024/02/05 09:17:26;;;;;;;2.10;0.93;;;8.30;1.00;;;;;;5026579;28;20716;-69
2024/02/05 09:19:55;;;;;;;3.17;1.57;;;8.30;1.00;;;;;;5031461;28;20440;-70
2024/02/05 09:22:20;;;;;;;2.47;1.30;;;8.30;1.00;;;;;;5019889;28;20265;-70
2024/02/05 09:24:46;;;;;;;1.90;1.07;;;8.30;1.00;;;;;;5020957;28;20973;-70
2024/02/05 09:27:11;;;;;;;2.17;1.23;;;8.30;1.00;;;;;;5027479;28;20223;-70
2024/02/05 09:29:37;;;;;;;3.60;1.47;;;8.60;1.00;;;;;;5018515;28;20188;-70
2024/02/05 09:32:05;;;;;;;6.03;1.87;;;8.60;1.00;;;;;;5011721;28;20574;-70
2024/02/05 09:34:31;;;;;;;2.20;1.10;;;8.70;1.00;;;;;;5016962;28;20215;-70
2024/02/05 09:36:57;;;;;;;2.27;1.17;;;8.90;1.00;;;;;;5012373;28;20434;-70
2024/02/05 09:39:23;;;;;;;3.80;0.90;;;8.80;1.00;;;;;;5012353;28;20407;-71
2024/02/05 09:41:52;;;;;;;2.20;1.00;;;8.90;1.00;;;;;;5010684;28;20469;-70
2024/02/05 09:44:19;;;;;;;3.17;1.43;;;8.90;1.00;;;;;;5012026;28;20500;-70
2024/02/05 09:46:49;;;;;;;2.13;1.10;;;8.70;1.00;;;;;;5010287;28;20788;-70
2024/02/05 09:49:16;;;;;;;2.87;1.53;;;8.60;1.00;;;;;;5012082;28;20449;-71
2024/02/05 09:51:42;;;;;;;3.40;1.60;;;8.40;1.00;;;;;;5011613;28;20421;-69
2024/02/05 09:54:09;;;;;;;4.53;1.33;;;8.50;1.00;;;;;;5010310;28;20477;-70
2024/02/05 09:56:35;;;;;;;5.10;2.50;;;8.30;1.00;;;;;;5011603;28;20175;-69
2024/02/05 09:59:05;;;;;;;2.67;1.40;;;8.30;1.00;;;;;;5011510;28;20936;-69
2024/02/05 10:01:32;;;;;;;4.67;1.10;;;8.20;1.00;;;;;;5010486;28;20532;-70
2024/02/05 10:03:58;;;;;;;2.57;1.00;;;8.30;1.00;;;;;;5011481;28;20481;-68
2024/02/05 10:06:26;;;;;;;3.70;1.27;;;8.50;1.00;;;;;;5011429;28;20449;-68
2024/02/05 10:09:06;;;;;;;2.93;1.20;;;8.80;1.00;;;;;;5011635;28;20410;-68
2024/02/05 10:11:33;;;;;;;2.67;1.23;;;9.00;1.00;;;;;;5011656;28;20522;-70
2024/02/05 10:13:59;;;;;;;3.00;0.93;;;9.20;1.00;;;;;;5011210;28;20469;-69
2024/02/05 10:16:24;;;;;;;2.23;0.80;;;9.20;1.00;;;;;;5011536;28;20419;-70
2024/02/05 10:18:50;;;;;;;1.87;0.90;;;9.30;1.00;;;;;;5010245;28;20179;-69
2024/02/05 10:21:17;;;;;;;2.47;1.10;;;9.30;1.00;;;;;;5010139;28;20183;-69
2024/02/05 10:23:51;;;;;;;2.30;1.13;;;9.50;1.00;;;;;;5010023;28;20439;-69
2024/02/05 10:26:16;;;;;;;2.40;0.83;;;9.70;1.00;;;;;;5011058;28;20842;-69
2024/02/05 10:28:42;;;;;;;3.13;1.10;;;9.50;1.00;;;;;;5009722;28;20451;-70
2024/02/05 10:31:10;;;;;;;2.83;0.90;;;9.50;1.00;;;;;;5011307;28;20183;-68
2024/02/05 10:33:39;;;;;;;2.67;1.37;;;9.60;1.00;;;;;;5010956;28;20226;-68
2024/02/05 10:36:05;;;;;;;2.37;1.30;;;9.40;1.00;;;;;;5009853;28;20429;-69
2024/02/05 10:38:41;;;;;;;3.00;1.17;;;9.40;1.00;;;;;;5011119;28;20415;-70
2024/02/05 10:41:08;;;;;;;2.07;1.17;;;9.30;1.00;;;;;;5010196;28;20924;-69
2024/02/05 10:43:34;;;;;;;2.50;1.03;;;9.30;1.00;;;;;;5011228;28;20830;-70
2024/02/05 10:46:00;;;;;;;1.70;0.83;;;9.20;1.00;;;;;;5010067;28;20510;-69
2024/02/05 10:48:28;;;;;;;2.10;0.87;;;9.20;1.00;;;;;;5010995;28;20172;-70
2024/02/05 10:50:54;;;;;;;4.03;1.00;;;9.20;1.00;;;;;;5018475;28;20275;-68
2024/02/05 10:53:20;;;;;;;2.73;0.90;;;9.20;1.00;;;;;;5014260;28;21626;-70
2024/02/05 10:55:46;;;;;;;1.70;0.80;;;9.10;1.00;;;;;;5014657;28;20610;-70
2024/02/05 10:58:15;;;;;;;3.27;1.57;;;9.10;1.00;;;;;;5028885;28;20469;-69
2024/02/05 11:00:47;;;;;;;1.90;0.93;;;9.20;1.00;;;;;;5024807;28;20477;-69
2024/02/05 11:03:17;;;;;;;2.07;0.80;;;9.40;1.00;;;;;;5009178;28;21036;-69
2024/02/05 11:05:49;;;;;;;2.87;1.37;;;9.40;1.00;;;;;;5012820;28;20419;-68
2024/02/05 11:08:23;;;;;;;2.33;1.03;;;9.40;1.00;;;;;;5014451;28;20871;-69
2024/02/05 11:10:55;;;;;;;3.10;0.90;;;9.50;1.00;;;;;;5029641;28;20889;-69
2024/02/05 11:13:24;;;;;;;3.03;1.03;;;9.70;1.00;;;;;;5032729;28;20458;-69
2024/02/05 11:15:51;;;;;;;3.37;1.10;;;9.90;1.00;;;;;;5029802;28;20434;-70
2024/02/05 11:18:23;;;;;;;6.07;1.33;;;10.00;1.00;;;;;;5029470;28;20690;-70
2024/02/05 11:20:50;;;;;;;3.10;1.30;;;10.10;1.00;;;;;;5029323;28;20917;-69
2024/02/05 11:23:17;;;;;;;3.20;1.07;;;10.10;1.00;;;;;;5029163;28;20441;-69
2024/02/05 11:25:43;;;;;;;3.57;1.00;;;10.10;1.00;;;;;;5025814;28;20419;-69
2024/02/05 11:28:10;;;;;;;2.73;1.03;;;10.10;1.00;;;;;;5009322;28;20983;-69
2024/02/05 11:30:40;;;;;;;2.37;1.00;;;10.10;1.00;;;;;;5012096;28;20259;-69
2024/02/05 11:33:06;;;;;;;2.50;1.20;;;10.10;1.00;;;;;;5030467;28;20564;-69
2024/02/05 11:35:32;;;;;;;5.47;1.13;;;10.10;1.00;;;;;;5030530;28;20864;-69
2024/02/05 11:38:10;;;;;;;2.60;1.23;;;10.20;1.00;;;;;;5028959;28;20180;-69
2024/02/05 11:40:40;;;;;;;2.93;1.00;;;10.40;1.00;;;;;;5030652;28;20472;-69
2024/02/05 11:43:06;;;;;;;2.17;1.20;;;10.30;1.00;;;;;;5029203;28;20450;-69
2024/02/05 11:45:32;;;;;;;2.73;1.00;;;10.50;1.00;;;;;;5029931;28;20422;-70
2024/02/05 11:48:03;;;;;;;1.83;1.17;;;10.60;1.00;;;;;;5030044;28;20418;-68
2024/02/05 11:50:32;;;;;;;2.47;1.30;;;10.60;1.00;;;;;;5026066;28;21174;-71
2024/02/05 11:52:58;;;;;;;1.80;0.80;;;10.70;1.00;;;;;;5024938;28;20460;-71
2024/02/05 11:55:28;;;;;;;3.50;1.40;;;10.90;1.00;;;;;;5030539;28;20491;-72
2024/02/05 11:57:57;;;;;;;2.13;0.90;;;11.00;1.00;;;;;;5027249;28;20196;-71
2024/02/05 12:00:25;;;;;;;2.47;0.90;;;11.10;1.00;;;;;;5029877;28;20420;-72
2024/02/05 12:02:51;;;;;;;2.20;1.00;;;11.20;1.00;;;;;;5031600;28;20513;-70
2024/02/05 12:05:18;;;;;;;1.70;0.80;;;11.40;1.00;;;;;;5027645;28;20441;-70
2024/02/05 12:07:45;;;;;;;1.90;1.07;;;11.40;1.00;;;;;;5030704;28;20986;-70
2024/02/05 12:10:11;;;;;;;2.47;0.90;;;11.40;1.00;;;;;;5029844;28;20871;-70
2024/02/05 12:12:38;;;;;;;2.83;1.60;;;11.40;1.00;;;;;;5032540;28;20474;-70
2024/02/05 12:15:06;;;;;;;1.97;1.27;;;11.50;1.00;;;;;;5025675;28;20550;-70
2024/02/05 12:17:34;;;;;;;2.63;1.23;;;11.50;1.00;;;;;;5027580;28;20492;-70
2024/02/05 12:20:00;;;;;;;3.73;1.30;;;11.50;1.00;;;;;;5030810;28;20807;-69
2024/02/05 12:22:30;;;;;;;2.80;1.20;;;11.60;1.00;;;;;;5030066;28;20435;-68
2024/02/05 12:24:56;;;;;;;3.70;1.73;;;11.50;1.00;;;;;;5030799;28;20927;-69
2024/02/05 12:27:22;;;;;;;2.30;1.17;;;11.80;1.00;;;;;;5025850;28;20486;-69
2024/02/05 12:29:47;;;;;;;3.53;1.43;;;11.80;1.00;;;;;;5030260;28;20220;-68
2024/02/05 12:32:14;;;;;;;2.90;1.27;;;12.00;1.00;;;;;;5030504;28;20461;-69
2024/02/05 12:34:40;;;;;;;6.87;1.83;;;12.20;1.00;;;;;;5032197;28;20264;-69
2024/02/05 12:37:07;;;;;;;2.27;1.30;;;12.30;1.00;;;;;;5034843;28;20801;-69
2024/02/05 12:39:32;;;;;;;2.87;1.00;;;12.40;1.00;;;;;;5031908;28;20671;-70
2024/02/05 12:41:58;;;;;;;2.27;1.30;;;12.40;1.00;;;;;;5037953;28;20440;-70
2024/02/05 12:44:24;;;;;;;2.37;1.33;;;12.60;1.00;;;;;;5042445;28;20204;-69
2024/02/05 12:46:53;;;;;;;2.73;1.50;;;12.70;1.00;;;;;;5037064;28;20262;-69
2024/02/05 12:49:20;;;;;;;6.93;1.77;;;12.70;1.00;;;;;;5033023;28;20774;-68
2024/02/05 12:51:47;;;;;;;3.33;1.20;;;12.70;1.00;;;;;;5031889;28;20433;-70
2024/02/05 12:54:15;;;;;;;2.10;1.30;;;12.70;1.00;;;;;;5032930;28;21031;-69
2024/02/05 12:56:41;;;;;;;3.07;1.50;;;12.80;1.00;;;;;;5030682;28;20589;-67
2024/02/05 12:59:07;;;;;;;4.07;1.77;;;12.80;1.00;;;;;;5033077;28;20425;-71